Aragon, GA (30104)

6:57 AM EDT on August 30, 2015 (GMT -0400)
Lindale | | Change Station
CLOSE
Current Station
Personal Weather Station
Location: Lindale, GA
Elevation: 780 ft
Nearby Weather Stations

Elev 780 ft 34.16 °N, 85.18 °W | Updated 1 second ago

Overcast
Overcast
69.1 °F
Feels Like 69.1 °F
N
0.0
Wind Variable Wind from NNE
Gusts 0.0 mph

Today
High -- | Low -- °F
--% Chance of Precip.
Yesterday
High -- | Low -- °F
Precip. -- in
7:12 AM 8:09 PM
Full, 99% visible
Pressure 30.12 in
Visibility 10.0 miles
Clouds Overcast 7500 ft
Dew Point 68 °F
Humidity 96%
Rainfall 0.05 in
Snow Depth Not available.
UV 0 out of 12
Pollen 8.00 out of 12
Air Quality Not available.
Flu Activity Not available.
METAR KPUJ 301035Z AUTO 00000KT 10SM OVC075 22/22 A3012 RMK AO2
Pressure 30.12 in
Visibility 10.0 miles
Clouds Overcast 7500 ft
Dew Point 68 °F
Humidity 96%
Rainfall 0.05 in
Snow Depth Not available.
UV 0 out of 12
Pollen 8.00 out of 12
Air Quality Not available.
Flu Activity Not available.
METAR KPUJ 301035Z AUTO 00000KT 10SM OVC075 22/22 A3012 RMK AO2

10-Day Weather Forecast

×

Almanac

Astronomy

Aug. 30, 2015 Rise Set
Actual Time
Civil Twilight
Nautical Twilight
Astronomical Twilight
Moon
Length of Visible Light
Length of Day
Tomorrow will be .
, % of the Moon is Illuminated

Today's Extremes

State Highs State Lows

Community

WunderPhotos

Upload Photos

1,850,925 photos uploaded!

WunderBlogs® & News

Nearby

Air Quality

  Air Quality AQ Index Pollutant
Not available.

Snow Depth

Station Depth Elevation

Earthquake Activity

City Distance Mag. Time & Date
Minimum magnitude displayed is 2.5.

Coastal Water Temperatures

Place Temperature

Stations

Nearby Weather Stations

Station Location Temp. Windchill Dew Point Humidity Wind Precip. Elev Updated Type